sensor_id;sensor_type;location;lat;lon;timestamp;P1;durP1;ratioP1;P2;durP2;ratioP2
47737;SDS011;33502;47.182;27.506;2022-07-29T00:02:26;9.65;;;5.97;;
47737;SDS011;33502;47.182;27.506;2022-07-29T00:04:53;10.98;;;6.05;;
47737;SDS011;33502;47.182;27.506;2022-07-29T00:07:19;9.63;;;5.97;;
47737;SDS011;33502;47.182;27.506;2022-07-29T00:09:45;8.85;;;5.53;;
47737;SDS011;33502;47.182;27.506;2022-07-29T00:12:11;9.02;;;5.28;;
47737;SDS011;33502;47.182;27.506;2022-07-29T00:14:37;10.73;;;5.93;;
47737;SDS011;33502;47.182;27.506;2022-07-29T00:17:03;9.57;;;5.70;;
47737;SDS011;33502;47.182;27.506;2022-07-29T00:19:28;11.20;;;5.63;;
47737;SDS011;33502;47.182;27.506;2022-07-29T00:21:54;10.70;;;5.40;;
47737;SDS011;33502;47.182;27.506;2022-07-29T00:24:20;10.63;;;6.13;;
47737;SDS011;33502;47.182;27.506;2022-07-29T00:26:45;11.65;;;6.05;;
47737;SDS011;33502;47.182;27.506;2022-07-29T00:29:11;12.60;;;5.95;;
47737;SDS011;33502;47.182;27.506;2022-07-29T00:31:37;12.27;;;6.43;;
47737;SDS011;33502;47.182;27.506;2022-07-29T00:34:03;9.82;;;5.68;;
47737;SDS011;33502;47.182;27.506;2022-07-29T00:36:29;9.65;;;6.00;;
47737;SDS011;33502;47.182;27.506;2022-07-29T00:38:54;9.13;;;5.47;;
47737;SDS011;33502;47.182;27.506;2022-07-29T00:41:20;14.38;;;5.55;;
47737;SDS011;33502;47.182;27.506;2022-07-29T00:43:46;9.48;;;5.60;;
47737;SDS011;33502;47.182;27.506;2022-07-29T00:46:12;10.50;;;5.57;;
47737;SDS011;33502;47.182;27.506;2022-07-29T00:48:38;10.38;;;6.22;;
47737;SDS011;33502;47.182;27.506;2022-07-29T00:51:04;13.05;;;5.43;;
47737;SDS011;33502;47.182;27.506;2022-07-29T00:53:31;10.75;;;6.00;;
47737;SDS011;33502;47.182;27.506;2022-07-29T00:55:57;11.88;;;6.35;;
47737;SDS011;33502;47.182;27.506;2022-07-29T00:58:24;12.63;;;5.95;;
47737;SDS011;33502;47.182;27.506;2022-07-29T01:00:51;11.23;;;6.40;;
47737;SDS011;33502;47.182;27.506;2022-07-29T01:03:18;11.43;;;5.93;;
47737;SDS011;33502;47.182;27.506;2022-07-29T01:05:44;9.90;;;5.97;;
47737;SDS011;33502;47.182;27.506;2022-07-29T01:08:11;8.73;;;5.43;;
47737;SDS011;33502;47.182;27.506;2022-07-29T01:10:39;9.32;;;5.80;;
47737;SDS011;33502;47.182;27.506;2022-07-29T01:13:07;12.00;;;6.05;;
47737;SDS011;33502;47.182;27.506;2022-07-29T01:15:36;8.98;;;5.93;;
47737;SDS011;33502;47.182;27.506;2022-07-29T01:18:22;12.60;;;6.03;;
47737;SDS011;33502;47.182;27.506;2022-07-29T01:26:41;12.20;;;5.82;;
47737;SDS011;33502;47.182;27.506;2022-07-29T01:29:14;11.25;;;5.60;;
47737;SDS011;33502;47.182;27.506;2022-07-29T01:34:29;9.52;;;6.13;;
47737;SDS011;33502;47.182;27.506;2022-07-29T01:37:18;7.80;;;5.28;;
47737;SDS011;33502;47.182;27.506;2022-07-29T01:39:48;9.45;;;5.57;;
47737;SDS011;33502;47.182;27.506;2022-07-29T01:45:08;11.65;;;6.05;;
47737;SDS011;33502;47.182;27.506;2022-07-29T01:47:46;8.27;;;5.47;;
47737;SDS011;33502;47.182;27.506;2022-07-29T01:50:16;6.78;;;4.65;;
47737;SDS011;33502;47.182;27.506;2022-07-29T01:52:49;8.30;;;5.00;;
47737;SDS011;33502;47.182;27.506;2022-07-29T01:55:20;7.40;;;5.25;;
47737;SDS011;33502;47.182;27.506;2022-07-29T01:57:50;12.00;;;5.40;;
47737;SDS011;33502;47.182;27.506;2022-07-29T02:00:16;8.88;;;5.13;;
47737;SDS011;33502;47.182;27.506;2022-07-29T02:02:43;12.18;;;5.32;;
47737;SDS011;33502;47.182;27.506;2022-07-29T02:05:12;10.30;;;5.93;;
47737;SDS011;33502;47.182;27.506;2022-07-29T02:07:42;10.80;;;5.45;;
47737;SDS011;33502;47.182;27.506;2022-07-29T02:10:10;11.10;;;4.78;;
47737;SDS011;33502;47.182;27.506;2022-07-29T02:12:37;9.45;;;4.70;;
47737;SDS011;33502;47.182;27.506;2022-07-29T02:15:06;8.57;;;5.00;;
47737;SDS011;33502;47.182;27.506;2022-07-29T02:17:33;6.80;;;5.13;;
47737;SDS011;33502;47.182;27.506;2022-07-29T02:20:06;10.02;;;4.57;;
47737;SDS011;33502;47.182;27.506;2022-07-29T02:22:35;10.30;;;4.90;;
47737;SDS011;33502;47.182;27.506;2022-07-29T02:25:03;7.10;;;4.50;;
47737;SDS011;33502;47.182;27.506;2022-07-29T02:27:30;8.63;;;4.70;;
47737;SDS011;33502;47.182;27.506;2022-07-29T02:29:58;10.15;;;4.80;;
47737;SDS011;33502;47.182;27.506;2022-07-29T02:32:27;9.27;;;4.57;;
47737;SDS011;33502;47.182;27.506;2022-07-29T02:34:54;9.20;;;4.93;;
47737;SDS011;33502;47.182;27.506;2022-07-29T02:37:21;10.57;;;5.03;;
47737;SDS011;33502;47.182;27.506;2022-07-29T02:39:49;8.77;;;4.72;;
47737;SDS011;33502;47.182;27.506;2022-07-29T02:42:19;8.05;;;4.43;;
47737;SDS011;33502;47.182;27.506;2022-07-29T02:44:47;7.82;;;4.22;;
47737;SDS011;33502;47.182;27.506;2022-07-29T02:47:17;8.15;;;4.03;;
47737;SDS011;33502;47.182;27.506;2022-07-29T02:52:44;9.30;;;5.00;;
47737;SDS011;33502;47.182;27.506;2022-07-29T02:55:18;11.48;;;4.68;;
47737;SDS011;33502;47.182;27.506;2022-07-29T02:58:27;10.20;;;5.32;;
47737;SDS011;33502;47.182;27.506;2022-07-29T03:01:03;10.27;;;5.35;;
47737;SDS011;33502;47.182;27.506;2022-07-29T03:03:36;8.70;;;5.13;;
47737;SDS011;33502;47.182;27.506;2022-07-29T03:06:03;9.95;;;5.28;;
47737;SDS011;33502;47.182;27.506;2022-07-29T03:08:32;9.02;;;5.20;;
47737;SDS011;33502;47.182;27.506;2022-07-29T03:10:59;5.97;;;4.85;;
47737;SDS011;33502;47.182;27.506;2022-07-29T03:13:26;9.50;;;6.38;;
47737;SDS011;33502;47.182;27.506;2022-07-29T03:15:53;6.32;;;5.20;;
47737;SDS011;33502;47.182;27.506;2022-07-29T03:18:20;13.02;;;5.97;;
47737;SDS011;33502;47.182;27.506;2022-07-29T03:20:47;11.07;;;5.22;;
47737;SDS011;33502;47.182;27.506;2022-07-29T03:23:14;10.02;;;6.38;;
47737;SDS011;33502;47.182;27.506;2022-07-29T03:25:45;10.52;;;5.85;;
47737;SDS011;33502;47.182;27.506;2022-07-29T03:28:11;9.18;;;6.85;;
47737;SDS011;33502;47.182;27.506;2022-07-29T03:30:37;12.30;;;6.40;;
47737;SDS011;33502;47.182;27.506;2022-07-29T03:33:02;10.68;;;7.68;;
47737;SDS011;33502;47.182;27.506;2022-07-29T03:35:28;10.55;;;7.22;;
47737;SDS011;33502;47.182;27.506;2022-07-29T03:37:56;9.40;;;6.05;;
47737;SDS011;33502;47.182;27.506;2022-07-29T03:40:27;7.57;;;5.75;;
47737;SDS011;33502;47.182;27.506;2022-07-29T03:43:01;10.35;;;7.18;;
47737;SDS011;33502;47.182;27.506;2022-07-29T03:45:29;7.70;;;6.85;;
47737;SDS011;33502;47.182;27.506;2022-07-29T03:47:57;12.35;;;7.45;;
47737;SDS011;33502;47.182;27.506;2022-07-29T03:50:27;9.05;;;7.43;;
47737;SDS011;33502;47.182;27.506;2022-07-29T03:52:54;10.32;;;6.97;;
47737;SDS011;33502;47.182;27.506;2022-07-29T03:55:19;8.02;;;7.03;;
47737;SDS011;33502;47.182;27.506;2022-07-29T03:57:45;10.40;;;7.55;;
47737;SDS011;33502;47.182;27.506;2022-07-29T04:00:13;9.90;;;7.03;;
47737;SDS011;33502;47.182;27.506;2022-07-29T04:02:44;7.68;;;6.43;;
47737;SDS011;33502;47.182;27.506;2022-07-29T04:05:13;8.50;;;7.43;;
47737;SDS011;33502;47.182;27.506;2022-07-29T04:07:42;7.82;;;6.88;;
47737;SDS011;33502;47.182;27.506;2022-07-29T04:10:09;12.23;;;8.02;;
47737;SDS011;33502;47.182;27.506;2022-07-29T04:12:35;14.20;;;8.07;;
47737;SDS011;33502;47.182;27.506;2022-07-29T04:15:02;13.55;;;10.85;;
47737;SDS011;33502;47.182;27.506;2022-07-29T04:17:29;17.33;;;11.35;;
47737;SDS011;33502;47.182;27.506;2022-07-29T04:19:54;16.70;;;11.32;;
47737;SDS011;33502;47.182;27.506;2022-07-29T04:22:21;18.90;;;11.88;;
47737;SDS011;33502;47.182;27.506;2022-07-29T04:24:47;13.35;;;10.45;;
47737;SDS011;33502;47.182;27.506;2022-07-29T04:27:13;12.88;;;8.60;;
47737;SDS011;33502;47.182;27.506;2022-07-29T04:29:39;10.13;;;8.05;;
47737;SDS011;33502;47.182;27.506;2022-07-29T04:32:05;9.75;;;7.93;;
47737;SDS011;33502;47.182;27.506;2022-07-29T04:34:31;12.40;;;8.57;;
47737;SDS011;33502;47.182;27.506;2022-07-29T04:36:56;10.15;;;7.53;;
47737;SDS011;33502;47.182;27.506;2022-07-29T04:39:22;8.20;;;7.47;;
47737;SDS011;33502;47.182;27.506;2022-07-29T04:41:49;12.82;;;7.55;;
47737;SDS011;33502;47.182;27.506;2022-07-29T04:44:16;10.70;;;7.55;;
47737;SDS011;33502;47.182;27.506;2022-07-29T04:46:42;10.57;;;7.93;;
47737;SDS011;33502;47.182;27.506;2022-07-29T04:49:07;11.20;;;8.48;;
47737;SDS011;33502;47.182;27.506;2022-07-29T04:51:33;9.30;;;8.32;;
47737;SDS011;33502;47.182;27.506;2022-07-29T04:54:00;17.00;;;8.95;;
47737;SDS011;33502;47.182;27.506;2022-07-29T04:56:26;14.25;;;9.30;;
47737;SDS011;33502;47.182;27.506;2022-07-29T04:58:52;9.57;;;8.52;;
47737;SDS011;33502;47.182;27.506;2022-07-29T05:01:18;15.27;;;13.63;;
47737;SDS011;33502;47.182;27.506;2022-07-29T05:03:44;18.77;;;14.25;;
47737;SDS011;33502;47.182;27.506;2022-07-29T05:06:11;20.73;;;14.95;;
47737;SDS011;33502;47.182;27.506;2022-07-29T05:08:37;19.15;;;15.55;;
47737;SDS011;33502;47.182;27.506;2022-07-29T05:11:03;11.80;;;10.23;;
47737;SDS011;33502;47.182;27.506;2022-07-29T05:13:29;14.15;;;10.35;;
47737;SDS011;33502;47.182;27.506;2022-07-29T05:15:55;15.15;;;10.63;;
47737;SDS011;33502;47.182;27.506;2022-07-29T05:18:24;10.48;;;9.38;;
47737;SDS011;33502;47.182;27.506;2022-07-29T05:20:50;10.43;;;9.05;;
47737;SDS011;33502;47.182;27.506;2022-07-29T05:23:16;9.98;;;8.93;;
47737;SDS011;33502;47.182;27.506;2022-07-29T05:25:42;9.70;;;8.70;;
47737;SDS011;33502;47.182;27.506;2022-07-29T05:28:08;9.38;;;8.48;;
47737;SDS011;33502;47.182;27.506;2022-07-29T05:30:33;14.60;;;8.68;;
47737;SDS011;33502;47.182;27.506;2022-07-29T05:32:59;9.80;;;8.80;;
47737;SDS011;33502;47.182;27.506;2022-07-29T05:35:25;9.27;;;8.07;;
47737;SDS011;33502;47.182;27.506;2022-07-29T05:37:51;11.20;;;8.45;;
47737;SDS011;33502;47.182;27.506;2022-07-29T05:40:16;9.60;;;8.35;;
47737;SDS011;33502;47.182;27.506;2022-07-29T05:42:42;9.13;;;8.23;;
47737;SDS011;33502;47.182;27.506;2022-07-29T05:45:08;10.25;;;8.15;;
47737;SDS011;33502;47.182;27.506;2022-07-29T05:47:34;9.30;;;8.40;;
47737;SDS011;33502;47.182;27.506;2022-07-29T05:50:00;9.88;;;8.23;;
47737;SDS011;33502;47.182;27.506;2022-07-29T05:52:26;9.90;;;8.00;;
47737;SDS011;33502;47.182;27.506;2022-07-29T05:54:51;9.25;;;8.35;;
47737;SDS011;33502;47.182;27.506;2022-07-29T05:57:21;11.07;;;8.32;;
47737;SDS011;33502;47.182;27.506;2022-07-29T05:59:48;9.53;;;8.00;;
47737;SDS011;33502;47.182;27.506;2022-07-29T06:02:15;8.68;;;7.78;;
47737;SDS011;33502;47.182;27.506;2022-07-29T06:04:41;10.00;;;8.35;;
47737;SDS011;33502;47.182;27.506;2022-07-29T06:07:08;11.10;;;8.43;;
47737;SDS011;33502;47.182;27.506;2022-07-29T06:09:35;12.07;;;9.30;;
47737;SDS011;33502;47.182;27.506;2022-07-29T06:12:00;10.57;;;9.32;;
47737;SDS011;33502;47.182;27.506;2022-07-29T06:14:27;11.70;;;10.23;;
47737;SDS011;33502;47.182;27.506;2022-07-29T06:16:53;11.80;;;9.00;;
47737;SDS011;33502;47.182;27.506;2022-07-29T06:19:19;12.77;;;10.00;;
47737;SDS011;33502;47.182;27.506;2022-07-29T06:21:45;12.00;;;10.25;;
47737;SDS011;33502;47.182;27.506;2022-07-29T06:24:13;9.20;;;8.40;;
47737;SDS011;33502;47.182;27.506;2022-07-29T06:26:40;9.13;;;7.32;;
47737;SDS011;33502;47.182;27.506;2022-07-29T06:29:07;11.32;;;9.02;;
47737;SDS011;33502;47.182;27.506;2022-07-29T06:31:34;12.88;;;8.57;;
47737;SDS011;33502;47.182;27.506;2022-07-29T06:34:00;16.05;;;8.23;;
47737;SDS011;33502;47.182;27.506;2022-07-29T06:36:25;10.80;;;7.82;;
47737;SDS011;33502;47.182;27.506;2022-07-29T06:38:51;9.80;;;7.35;;
47737;SDS011;33502;47.182;27.506;2022-07-29T06:41:17;8.73;;;7.70;;
47737;SDS011;33502;47.182;27.506;2022-07-29T06:43:43;9.60;;;8.68;;
47737;SDS011;33502;47.182;27.506;2022-07-29T06:46:12;10.85;;;8.07;;
47737;SDS011;33502;47.182;27.506;2022-07-29T06:51:08;10.85;;;8.30;;
47737;SDS011;33502;47.182;27.506;2022-07-29T06:53:36;9.68;;;8.13;;
47737;SDS011;33502;47.182;27.506;2022-07-29T06:56:04;8.23;;;7.10;;
47737;SDS011;33502;47.182;27.506;2022-07-29T06:58:30;8.00;;;7.18;;
47737;SDS011;33502;47.182;27.506;2022-07-29T07:00:57;9.57;;;6.45;;
47737;SDS011;33502;47.182;27.506;2022-07-29T07:03:23;8.35;;;6.35;;
47737;SDS011;33502;47.182;27.506;2022-07-29T07:05:49;7.38;;;6.13;;
47737;SDS011;33502;47.182;27.506;2022-07-29T07:08:17;12.65;;;6.57;;
47737;SDS011;33502;47.182;27.506;2022-07-29T07:10:44;6.50;;;5.75;;
47737;SDS011;33502;47.182;27.506;2022-07-29T07:13:11;7.60;;;5.50;;
47737;SDS011;33502;47.182;27.506;2022-07-29T07:15:37;6.20;;;5.60;;
47737;SDS011;33502;47.182;27.506;2022-07-29T07:18:03;7.28;;;5.65;;
47737;SDS011;33502;47.182;27.506;2022-07-29T07:20:29;9.80;;;6.22;;
47737;SDS011;33502;47.182;27.506;2022-07-29T07:22:55;6.40;;;5.68;;
47737;SDS011;33502;47.182;27.506;2022-07-29T07:25:21;10.52;;;7.03;;
47737;SDS011;33502;47.182;27.506;2022-07-29T07:27:47;7.40;;;5.85;;
47737;SDS011;33502;47.182;27.506;2022-07-29T07:30:13;6.93;;;5.57;;
47737;SDS011;33502;47.182;27.506;2022-07-29T07:32:39;7.60;;;6.50;;
47737;SDS011;33502;47.182;27.506;2022-07-29T07:35:06;7.68;;;6.43;;
47737;SDS011;33502;47.182;27.506;2022-07-29T07:37:33;9.43;;;8.23;;
47737;SDS011;33502;47.182;27.506;2022-07-29T07:39:59;11.05;;;7.10;;
47737;SDS011;33502;47.182;27.506;2022-07-29T07:42:26;9.07;;;6.80;;
47737;SDS011;33502;47.182;27.506;2022-07-29T07:44:51;8.10;;;7.18;;
47737;SDS011;33502;47.182;27.506;2022-07-29T07:47:18;9.27;;;6.82;;
47737;SDS011;33502;47.182;27.506;2022-07-29T07:49:45;7.35;;;6.63;;
47737;SDS011;33502;47.182;27.506;2022-07-29T07:52:13;9.20;;;6.95;;
47737;SDS011;33502;47.182;27.506;2022-07-29T07:54:39;10.85;;;6.78;;
47737;SDS011;33502;47.182;27.506;2022-07-29T07:57:05;6.90;;;6.20;;
47737;SDS011;33502;47.182;27.506;2022-07-29T07:59:31;9.48;;;6.35;;
47737;SDS011;33502;47.182;27.506;2022-07-29T08:01:57;9.75;;;5.95;;
47737;SDS011;33502;47.182;27.506;2022-07-29T08:04:23;11.60;;;6.03;;
47737;SDS011;33502;47.182;27.506;2022-07-29T08:06:50;7.97;;;5.80;;
47737;SDS011;33502;47.182;27.506;2022-07-29T08:09:16;7.95;;;6.43;;
47737;SDS011;33502;47.182;27.506;2022-07-29T08:11:41;8.75;;;6.05;;
47737;SDS011;33502;47.182;27.506;2022-07-29T08:14:07;9.43;;;5.90;;
47737;SDS011;33502;47.182;27.506;2022-07-29T08:16:33;10.32;;;7.13;;
47737;SDS011;33502;47.182;27.506;2022-07-29T08:18:59;8.73;;;5.95;;
47737;SDS011;33502;47.182;27.506;2022-07-29T08:21:24;7.28;;;5.22;;
47737;SDS011;33502;47.182;27.506;2022-07-29T08:23:51;6.78;;;5.30;;
47737;SDS011;33502;47.182;27.506;2022-07-29T08:26:37;7.00;;;5.05;;
47737;SDS011;33502;47.182;27.506;2022-07-29T08:29:02;8.00;;;5.00;;
47737;SDS011;33502;47.182;27.506;2022-07-29T08:31:28;5.53;;;5.00;;
47737;SDS011;33502;47.182;27.506;2022-07-29T08:33:54;6.28;;;5.25;;
47737;SDS011;33502;47.182;27.506;2022-07-29T08:36:21;7.28;;;4.20;;
47737;SDS011;33502;47.182;27.506;2022-07-29T08:38:47;8.52;;;4.45;;
47737;SDS011;33502;47.182;27.506;2022-07-29T08:41:14;8.15;;;5.22;;
47737;SDS011;33502;47.182;27.506;2022-07-29T08:43:40;7.10;;;4.47;;
47737;SDS011;33502;47.182;27.506;2022-07-29T08:46:06;6.63;;;3.70;;
47737;SDS011;33502;47.182;27.506;2022-07-29T08:48:32;8.88;;;3.67;;
47737;SDS011;33502;47.182;27.506;2022-07-29T08:50:59;4.30;;;3.90;;
47737;SDS011;33502;47.182;27.506;2022-07-29T08:53:26;5.40;;;3.97;;
47737;SDS011;33502;47.182;27.506;2022-07-29T08:55:54;7.15;;;4.40;;
47737;SDS011;33502;47.182;27.506;2022-07-29T08:58:21;5.07;;;3.70;;
47737;SDS011;33502;47.182;27.506;2022-07-29T09:00:50;6.25;;;4.43;;
47737;SDS011;33502;47.182;27.506;2022-07-29T09:03:18;7.53;;;4.05;;
47737;SDS011;33502;47.182;27.506;2022-07-29T09:05:45;7.88;;;4.05;;
47737;SDS011;33502;47.182;27.506;2022-07-29T09:08:12;3.97;;;3.50;;
47737;SDS011;33502;47.182;27.506;2022-07-29T09:10:40;5.57;;;3.80;;
47737;SDS011;33502;47.182;27.506;2022-07-29T09:13:05;4.57;;;3.55;;
47737;SDS011;33502;47.182;27.506;2022-07-29T09:15:31;4.97;;;3.45;;
47737;SDS011;33502;47.182;27.506;2022-07-29T09:17:57;5.00;;;3.60;;
47737;SDS011;33502;47.182;27.506;2022-07-29T09:20:27;5.60;;;3.30;;
47737;SDS011;33502;47.182;27.506;2022-07-29T09:23:13;3.90;;;3.60;;
47737;SDS011;33502;47.182;27.506;2022-07-29T09:25:40;4.38;;;3.30;;
47737;SDS011;33502;47.182;27.506;2022-07-29T09:28:10;5.10;;;3.67;;
47737;SDS011;33502;47.182;27.506;2022-07-29T09:30:57;4.43;;;3.10;;
47737;SDS011;33502;47.182;27.506;2022-07-29T09:33:24;3.92;;;3.05;;
47737;SDS011;33502;47.182;27.506;2022-07-29T09:36:02;5.18;;;3.22;;
47737;SDS011;33502;47.182;27.506;2022-07-29T09:38:29;5.70;;;3.22;;
47737;SDS011;33502;47.182;27.506;2022-07-29T09:40:56;6.80;;;3.58;;
47737;SDS011;33502;47.182;27.506;2022-07-29T09:43:23;4.60;;;3.75;;
47737;SDS011;33502;47.182;27.506;2022-07-29T09:45:48;7.45;;;4.25;;
47737;SDS011;33502;47.182;27.506;2022-07-29T09:48:15;5.50;;;3.83;;
47737;SDS011;33502;47.182;27.506;2022-07-29T09:50:48;7.70;;;4.07;;
47737;SDS011;33502;47.182;27.506;2022-07-29T09:55:59;9.32;;;5.25;;
47737;SDS011;33502;47.182;27.506;2022-07-29T09:58:25;5.57;;;4.38;;
47737;SDS011;33502;47.182;27.506;2022-07-29T10:00:51;7.78;;;4.97;;
47737;SDS011;33502;47.182;27.506;2022-07-29T10:03:19;11.30;;;6.63;;
47737;SDS011;33502;47.182;27.506;2022-07-29T10:05:45;7.13;;;5.20;;
47737;SDS011;33502;47.182;27.506;2022-07-29T10:08:28;9.40;;;5.75;;
47737;SDS011;33502;47.182;27.506;2022-07-29T10:11:07;9.82;;;6.50;;
47737;SDS011;33502;47.182;27.506;2022-07-29T10:13:38;8.23;;;6.05;;
47737;SDS011;33502;47.182;27.506;2022-07-29T10:16:05;11.52;;;6.70;;
47737;SDS011;33502;47.182;27.506;2022-07-29T10:18:31;11.10;;;6.13;;
47737;SDS011;33502;47.182;27.506;2022-07-29T10:20:58;7.22;;;5.82;;
47737;SDS011;33502;47.182;27.506;2022-07-29T10:23:29;6.00;;;5.10;;
47737;SDS011;33502;47.182;27.506;2022-07-29T10:25:56;7.40;;;4.95;;
47737;SDS011;33502;47.182;27.506;2022-07-29T10:28:23;7.70;;;5.90;;
47737;SDS011;33502;47.182;27.506;2022-07-29T10:30:50;7.43;;;5.10;;
47737;SDS011;33502;47.182;27.506;2022-07-29T10:33:21;10.30;;;6.30;;
47737;SDS011;33502;47.182;27.506;2022-07-29T10:38:41;6.10;;;4.68;;
47737;SDS011;33502;47.182;27.506;2022-07-29T10:44:01;8.02;;;6.72;;
47737;SDS011;33502;47.182;27.506;2022-07-29T10:46:35;7.95;;;6.22;;
47737;SDS011;33502;47.182;27.506;2022-07-29T10:54:17;11.20;;;6.72;;
47737;SDS011;33502;47.182;27.506;2022-07-29T10:56:44;8.88;;;7.63;;
47737;SDS011;33502;47.182;27.506;2022-07-29T11:01:45;11.05;;;7.63;;
47737;SDS011;33502;47.182;27.506;2022-07-29T11:04:12;10.95;;;7.43;;
47737;SDS011;33502;47.182;27.506;2022-07-29T11:09:25;13.18;;;8.38;;
47737;SDS011;33502;47.182;27.506;2022-07-29T11:11:52;13.75;;;8.38;;
47737;SDS011;33502;47.182;27.506;2022-07-29T11:14:18;10.27;;;7.13;;
47737;SDS011;33502;47.182;27.506;2022-07-29T11:17:04;9.90;;;6.63;;
47737;SDS011;33502;47.182;27.506;2022-07-29T11:19:32;10.50;;;6.90;;
47737;SDS011;33502;47.182;27.506;2022-07-29T11:21:58;12.68;;;6.93;;
47737;SDS011;33502;47.182;27.506;2022-07-29T11:24:29;9.63;;;6.97;;
47737;SDS011;33502;47.182;27.506;2022-07-29T11:27:18;19.60;;;6.40;;
47737;SDS011;33502;47.182;27.506;2022-07-29T11:29:49;8.18;;;6.15;;
47737;SDS011;33502;47.182;27.506;2022-07-29T11:32:20;9.13;;;6.65;;
47737;SDS011;33502;47.182;27.506;2022-07-29T11:34:48;10.02;;;6.45;;
47737;SDS011;33502;47.182;27.506;2022-07-29T11:37:14;17.60;;;8.00;;
47737;SDS011;33502;47.182;27.506;2022-07-29T11:39:42;6.22;;;5.63;;
47737;SDS011;33502;47.182;27.506;2022-07-29T11:47:22;10.35;;;8.20;;
47737;SDS011;33502;47.182;27.506;2022-07-29T11:49:50;11.43;;;8.35;;
47737;SDS011;33502;47.182;27.506;2022-07-29T11:52:16;15.18;;;9.40;;
47737;SDS011;33502;47.182;27.506;2022-07-29T11:54:43;11.23;;;8.30;;
47737;SDS011;33502;47.182;27.506;2022-07-29T11:57:11;11.63;;;10.10;;
47737;SDS011;33502;47.182;27.506;2022-07-29T11:59:44;12.40;;;9.63;;
47737;SDS011;33502;47.182;27.506;2022-07-29T12:02:11;12.57;;;10.30;;
47737;SDS011;33502;47.182;27.506;2022-07-29T12:04:50;12.13;;;9.98;;
47737;SDS011;33502;47.182;27.506;2022-07-29T12:07:18;16.75;;;11.68;;
47737;SDS011;33502;47.182;27.506;2022-07-29T12:09:51;13.82;;;9.45;;
47737;SDS011;33502;47.182;27.506;2022-07-29T12:12:18;13.52;;;10.95;;
47737;SDS011;33502;47.182;27.506;2022-07-29T12:14:45;10.70;;;9.65;;
47737;SDS011;33502;47.182;27.506;2022-07-29T12:20:13;12.20;;;7.97;;
47737;SDS011;33502;47.182;27.506;2022-07-29T12:22:47;8.88;;;7.53;;
47737;SDS011;33502;47.182;27.506;2022-07-29T12:25:14;11.32;;;8.07;;
47737;SDS011;33502;47.182;27.506;2022-07-29T12:27:42;10.02;;;7.68;;
47737;SDS011;33502;47.182;27.506;2022-07-29T12:30:14;11.50;;;9.32;;
47737;SDS011;33502;47.182;27.506;2022-07-29T12:32:46;9.88;;;8.30;;
47737;SDS011;33502;47.182;27.506;2022-07-29T12:35:18;10.02;;;7.40;;
47737;SDS011;33502;47.182;27.506;2022-07-29T12:37:45;7.93;;;7.13;;
47737;SDS011;33502;47.182;27.506;2022-07-29T12:40:14;8.27;;;7.28;;
47737;SDS011;33502;47.182;27.506;2022-07-29T12:45:38;11.65;;;7.55;;
47737;SDS011;33502;47.182;27.506;2022-07-29T12:48:06;9.38;;;6.95;;
47737;SDS011;33502;47.182;27.506;2022-07-29T12:50:34;7.47;;;6.15;;
47737;SDS011;33502;47.182;27.506;2022-07-29T12:53:19;10.65;;;5.60;;
47737;SDS011;33502;47.182;27.506;2022-07-29T12:55:46;8.05;;;5.78;;
47737;SDS011;33502;47.182;27.506;2022-07-29T12:58:41;5.78;;;4.63;;
47737;SDS011;33502;47.182;27.506;2022-07-29T13:01:08;5.57;;;4.78;;
47737;SDS011;33502;47.182;27.506;2022-07-29T13:03:53;7.90;;;5.22;;
47737;SDS011;33502;47.182;27.506;2022-07-29T13:06:29;4.75;;;4.32;;
47737;SDS011;33502;47.182;27.506;2022-07-29T13:09:16;11.45;;;5.30;;
47737;SDS011;33502;47.182;27.506;2022-07-29T13:11:44;6.47;;;4.72;;
47737;SDS011;33502;47.182;27.506;2022-07-29T13:14:11;8.00;;;4.82;;
47737;SDS011;33502;47.182;27.506;2022-07-29T13:22:06;10.77;;;5.28;;
47737;SDS011;33502;47.182;27.506;2022-07-29T13:27:34;6.55;;;5.32;;
47737;SDS011;33502;47.182;27.506;2022-07-29T13:30:03;5.65;;;4.90;;
47737;SDS011;33502;47.182;27.506;2022-07-29T13:32:31;5.60;;;5.07;;
47737;SDS011;33502;47.182;27.506;2022-07-29T13:35:00;6.97;;;4.57;;
47737;SDS011;33502;47.182;27.506;2022-07-29T13:37:28;7.85;;;4.93;;
47737;SDS011;33502;47.182;27.506;2022-07-29T13:39:55;6.10;;;4.93;;
47737;SDS011;33502;47.182;27.506;2022-07-29T13:42:24;6.13;;;4.20;;
47737;SDS011;33502;47.182;27.506;2022-07-29T13:44:51;6.15;;;5.05;;
47737;SDS011;33502;47.182;27.506;2022-07-29T13:47:18;7.05;;;4.75;;
47737;SDS011;33502;47.182;27.506;2022-07-29T13:49:44;6.95;;;4.63;;
47737;SDS011;33502;47.182;27.506;2022-07-29T13:52:10;5.70;;;4.57;;
47737;SDS011;33502;47.182;27.506;2022-07-29T13:54:36;7.30;;;5.35;;
47737;SDS011;33502;47.182;27.506;2022-07-29T13:57:03;5.10;;;4.30;;
47737;SDS011;33502;47.182;27.506;2022-07-29T13:59:30;5.43;;;4.75;;
47737;SDS011;33502;47.182;27.506;2022-07-29T14:01:56;5.82;;;4.30;;
47737;SDS011;33502;47.182;27.506;2022-07-29T14:04:22;5.50;;;4.35;;
47737;SDS011;33502;47.182;27.506;2022-07-29T14:06:51;7.72;;;4.72;;
47737;SDS011;33502;47.182;27.506;2022-07-29T14:09:16;5.68;;;4.55;;
47737;SDS011;33502;47.182;27.506;2022-07-29T14:11:43;5.75;;;4.50;;
47737;SDS011;33502;47.182;27.506;2022-07-29T14:14:09;4.70;;;4.15;;
47737;SDS011;33502;47.182;27.506;2022-07-29T14:16:36;6.18;;;5.43;;
47737;SDS011;33502;47.182;27.506;2022-07-29T14:19:02;6.10;;;4.88;;
47737;SDS011;33502;47.182;27.506;2022-07-29T14:21:27;5.50;;;4.30;;
47737;SDS011;33502;47.182;27.506;2022-07-29T14:23:53;6.88;;;4.43;;
47737;SDS011;33502;47.182;27.506;2022-07-29T14:26:20;6.40;;;4.45;;
47737;SDS011;33502;47.182;27.506;2022-07-29T14:28:47;5.35;;;4.85;;
47737;SDS011;33502;47.182;27.506;2022-07-29T14:31:14;5.45;;;4.95;;
47737;SDS011;33502;47.182;27.506;2022-07-29T14:33:40;5.38;;;4.85;;
47737;SDS011;33502;47.182;27.506;2022-07-29T14:36:06;6.75;;;5.03;;
47737;SDS011;33502;47.182;27.506;2022-07-29T14:38:32;6.13;;;4.57;;
47737;SDS011;33502;47.182;27.506;2022-07-29T14:40:58;6.82;;;4.55;;
47737;SDS011;33502;47.182;27.506;2022-07-29T14:43:24;5.32;;;4.18;;
47737;SDS011;33502;47.182;27.506;2022-07-29T14:45:49;5.13;;;4.10;;
47737;SDS011;33502;47.182;27.506;2022-07-29T14:48:15;7.22;;;4.25;;
47737;SDS011;33502;47.182;27.506;2022-07-29T14:50:41;4.80;;;4.20;;
47737;SDS011;33502;47.182;27.506;2022-07-29T14:53:07;5.47;;;4.38;;
47737;SDS011;33502;47.182;27.506;2022-07-29T14:55:33;5.53;;;4.72;;
47737;SDS011;33502;47.182;27.506;2022-07-29T14:57:58;4.22;;;3.83;;
47737;SDS011;33502;47.182;27.506;2022-07-29T15:00:25;5.38;;;4.60;;
47737;SDS011;33502;47.182;27.506;2022-07-29T15:02:51;6.75;;;4.30;;
47737;SDS011;33502;47.182;27.506;2022-07-29T15:05:16;7.50;;;5.10;;
47737;SDS011;33502;47.182;27.506;2022-07-29T15:07:43;7.45;;;4.30;;
47737;SDS011;33502;47.182;27.506;2022-07-29T15:10:08;4.35;;;3.85;;
47737;SDS011;33502;47.182;27.506;2022-07-29T15:12:35;5.72;;;4.47;;
47737;SDS011;33502;47.182;27.506;2022-07-29T15:15:01;7.80;;;4.13;;
47737;SDS011;33502;47.182;27.506;2022-07-29T15:17:26;4.57;;;4.00;;
47737;SDS011;33502;47.182;27.506;2022-07-29T15:19:52;5.82;;;4.68;;
47737;SDS011;33502;47.182;27.506;2022-07-29T15:22:18;4.80;;;4.07;;
47737;SDS011;33502;47.182;27.506;2022-07-29T15:24:44;4.93;;;4.20;;
47737;SDS011;33502;47.182;27.506;2022-07-29T15:27:10;6.50;;;4.85;;
47737;SDS011;33502;47.182;27.506;2022-07-29T15:29:42;5.65;;;4.10;;